createdAt,value
2022-09-21T00:01:45.728Z,2.8
2022-09-21T00:03:47.029Z,3
2022-09-21T00:05:48.266Z,3.1
2022-09-21T00:07:54.323Z,2.5
2022-09-21T00:09:55.591Z,3.1
2022-09-21T00:11:58.370Z,1.9
2022-09-21T00:13:58.118Z,1.6
2022-09-21T00:15:59.364Z,1.9
2022-09-21T00:18:00.620Z,1.9
2022-09-21T00:20:01.896Z,1.5
2022-09-21T00:22:06.407Z,1.8
2022-09-21T00:24:07.656Z,1.2
2022-09-21T00:26:08.907Z,3.8
2022-09-21T00:28:10.155Z,2.5
2022-09-21T00:30:11.424Z,2.5
2022-09-21T00:32:12.671Z,2.3
2022-09-21T00:34:13.938Z,1.4
2022-09-21T00:36:18.453Z,1.4
2022-09-21T00:38:19.698Z,1.9
2022-09-21T00:40:20.988Z,1.1
2022-09-21T00:42:22.203Z,4.2
2022-09-21T00:46:24.728Z,2.1
2022-09-21T00:48:26.016Z,0.8
2022-09-21T00:50:30.539Z,1.4
2022-09-21T00:55:35.283Z,2
2022-09-21T00:57:36.532Z,1.7
2022-09-21T00:59:37.808Z,1.8
2022-09-21T01:01:39.052Z,2.1
2022-09-21T01:03:43.552Z,2.5
2022-09-21T01:05:44.786Z,1.7
2022-09-21T01:07:46.035Z,2.2
2022-09-21T01:09:47.287Z,1.8
2022-09-21T01:11:48.527Z,1.9
2022-09-21T01:15:51.050Z,2.1
2022-09-21T01:17:55.559Z,1.5
2022-09-21T01:19:56.829Z,2.1
2022-09-21T01:21:58.066Z,1.7
2022-09-21T01:26:00.551Z,1.6
2022-09-21T01:30:03.058Z,1.5
2022-09-21T01:34:08.838Z,1.5
2022-09-21T01:36:10.058Z,1.8
2022-09-21T01:38:11.279Z,1.3
2022-09-21T01:40:12.557Z,1.4
2022-09-21T01:42:13.797Z,1.1
2022-09-21T01:44:15.019Z,1.4
2022-09-21T01:46:19.535Z,1.8
2022-09-21T01:48:20.757Z,1.5
2022-09-21T01:50:22.004Z,1.4
2022-09-21T01:54:45.963Z,1.3
2022-09-21T01:56:47.244Z,1.4
2022-09-21T02:00:53.014Z,1.1
2022-09-21T02:02:54.257Z,1.3
2022-09-21T02:04:55.480Z,1
2022-09-21T02:06:56.736Z,0.8
2022-09-21T02:08:57.996Z,1.2
2022-09-21T02:10:59.239Z,1.2
2022-09-21T02:13:03.708Z,1.3
2022-09-21T02:15:04.965Z,1.2
2022-09-21T02:17:06.236Z,1.7
2022-09-21T02:19:07.565Z,1.3
2022-09-21T02:21:08.727Z,1.1
2022-09-21T02:23:09.977Z,1.6
2022-09-21T02:25:11.238Z,1.1
2022-09-21T02:27:15.763Z,1.4
2022-09-21T02:29:17.013Z,1.3
2022-09-21T02:31:18.399Z,1.6
2022-09-21T02:33:19.473Z,1.2
2022-09-21T02:35:20.732Z,1.2
2022-09-21T02:37:21.951Z,1
2022-09-21T02:41:27.676Z,1.3
2022-09-21T02:43:28.894Z,1.6
2022-09-21T02:45:30.123Z,1.6
2022-09-21T02:46:32.388Z,1.9
2022-09-21T02:48:33.622Z,1.4
2022-09-21T02:50:34.872Z,1.3
2022-09-21T02:52:36.118Z,1.6
2022-09-21T02:58:43.075Z,1.8
2022-09-21T03:00:44.382Z,1.6
2022-09-21T03:02:45.596Z,1.1
2022-09-21T03:04:46.835Z,1.2
2022-09-21T03:06:48.069Z,1.4
2022-09-21T03:08:52.560Z,1.4
2022-09-21T03:10:53.786Z,1.4
2022-09-21T03:14:56.281Z,1.4
2022-09-21T03:16:57.478Z,1.6
2022-09-21T03:18:58.717Z,1.1
2022-09-21T03:20:59.956Z,1.6
2022-09-21T03:25:05.681Z,1.7
2022-09-21T03:27:06.922Z,1.1
2022-09-21T03:29:08.156Z,1.1
2022-09-21T03:31:09.452Z,2
2022-09-21T03:33:10.604Z,0.9
2022-09-21T03:35:11.854Z,2
2022-09-21T03:37:16.340Z,1.6
2022-09-21T03:39:17.574Z,1.5
2022-09-21T03:41:18.822Z,2.3
2022-09-21T03:42:21.061Z,2
2022-09-21T03:44:22.292Z,1.7
2022-09-21T03:46:23.647Z,2
2022-09-21T03:48:24.764Z,1.5
2022-09-21T03:50:29.247Z,1.4
2022-09-21T03:52:30.500Z,1.1
2022-09-21T03:54:31.713Z,1.2
2022-09-21T03:56:32.962Z,2.3
2022-09-21T03:58:34.226Z,1
2022-09-21T04:00:35.475Z,1.3
2022-09-21T04:02:36.726Z,1.1
2022-09-21T04:06:42.423Z,1
2022-09-21T04:08:43.844Z,1.7
2022-09-21T04:12:46.169Z,2.4
2022-09-21T04:14:47.381Z,1.7
2022-09-21T04:16:48.621Z,1.6
2022-09-21T04:22:55.571Z,1.4
2022-09-21T04:24:56.811Z,1.9
2022-09-21T04:26:58.055Z,1.2
2022-09-21T04:28:59.267Z,1.3
2022-09-21T04:31:00.651Z,1.5
2022-09-21T04:35:06.248Z,1.8
2022-09-21T04:37:07.444Z,1.2
2022-09-21T04:38:09.712Z,0.9
2022-09-21T04:40:10.985Z,1.8
2022-09-21T04:42:12.193Z,1.4
2022-09-21T04:44:13.414Z,1.2
2022-09-21T04:46:17.953Z,1.4
2022-09-21T04:48:19.144Z,1.2
2022-09-21T04:50:20.392Z,1.3
2022-09-21T04:52:21.614Z,1.2
2022-09-21T04:54:22.877Z,1.4
2022-09-21T04:56:24.101Z,1.5
2022-09-21T04:58:25.363Z,1.6
2022-09-21T05:00:29.831Z,1.3
2022-09-21T05:02:31.091Z,1.5
2022-09-21T05:04:32.345Z,1.4
2022-09-21T05:06:33.596Z,1.9
2022-09-21T05:08:34.793Z,2.1
2022-09-21T05:10:36.025Z,1.5
2022-09-21T05:12:40.873Z,1.9
2022-09-21T05:14:41.781Z,1.2
2022-09-21T05:16:43.020Z,1.7
2022-09-21T05:18:44.237Z,1.7
2022-09-21T05:20:45.496Z,1.2
2022-09-21T05:22:46.746Z,2
2022-09-21T05:24:47.982Z,1.8
2022-09-21T05:26:49.183Z,2.7
2022-09-21T05:28:53.671Z,1.5
2022-09-21T05:31:16.327Z,1.6
2022-09-21T05:32:56.156Z,1.3
2022-09-21T05:35:24.644Z,2.2
2022-09-21T05:37:25.877Z,1.9
2022-09-21T05:39:27.125Z,1.7
2022-09-21T05:41:31.600Z,1.4
2022-09-21T05:43:32.849Z,1.5
2022-09-21T05:45:34.061Z,2.1
2022-09-21T05:47:35.303Z,1.5
2022-09-21T05:49:36.557Z,1.4
2022-09-21T05:51:37.797Z,2.4
2022-09-21T05:53:39.031Z,1.3
2022-09-21T05:55:45.076Z,3.5
2022-09-21T05:57:46.239Z,1.6
2022-09-21T05:59:47.476Z,1.9
2022-09-21T06:01:48.728Z,1.4
2022-09-21T06:03:49.978Z,2.2
2022-09-21T06:05:51.179Z,2
2022-09-21T06:07:52.423Z,2.5
2022-09-21T06:09:56.941Z,2.7
2022-09-21T06:11:58.171Z,2.5
2022-09-21T06:13:59.417Z,3.1
2022-09-21T06:16:00.666Z,3.2
2022-09-21T06:18:01.892Z,2.3
2022-09-21T06:20:03.143Z,2.5
2022-09-21T06:22:04.364Z,3.7
2022-09-21T06:24:08.877Z,3.3
2022-09-21T06:26:10.143Z,2.3
2022-09-21T06:28:11.340Z,2.5
2022-09-21T06:29:13.595Z,2.8
2022-09-21T06:31:14.856Z,3.5
2022-09-21T06:33:16.106Z,3.2
2022-09-21T06:35:17.308Z,3.4
2022-09-21T06:37:21.762Z,3.4
2022-09-21T06:39:22.993Z,4.3
2022-09-21T06:41:24.225Z,4
2022-09-21T06:43:25.476Z,3.9
2022-09-21T06:51:33.722Z,4
2022-09-21T06:53:34.973Z,5.8
2022-09-21T06:55:36.207Z,3.9
2022-09-21T06:57:37.441Z,4.4
2022-09-21T06:59:38.680Z,4
2022-09-21T07:03:41.164Z,4.1
2022-09-21T07:05:45.644Z,4.8
2022-09-21T07:07:46.918Z,4.4
2022-09-21T07:10:06.878Z,4.3
2022-09-21T07:11:49.409Z,3.8
2022-09-21T07:13:50.632Z,3.8
2022-09-21T07:15:53.430Z,3.4
2022-09-21T07:19:57.598Z,4.1
2022-09-21T07:21:58.847Z,4.8
2022-09-21T07:24:00.146Z,4
2022-09-21T07:29:04.953Z,4.3
2022-09-21T07:31:06.089Z,4.1
2022-09-21T07:33:10.612Z,4.4
2022-09-21T07:35:11.857Z,4.4
2022-09-21T07:41:15.612Z,4.5
2022-09-21T07:45:18.251Z,3.2
2022-09-21T07:47:22.610Z,12.8
2022-09-21T07:49:23.838Z,4.6
2022-09-21T07:51:25.120Z,4.5
2022-09-21T07:53:26.365Z,4.4
2022-09-21T07:55:27.634Z,4.8
2022-09-21T07:57:28.884Z,3.5
2022-09-21T08:03:35.915Z,4
2022-09-21T08:05:37.157Z,3.7
2022-09-21T08:07:38.436Z,3.2
2022-09-21T08:11:40.939Z,2.8
2022-09-21T08:13:42.187Z,3.2
2022-09-21T08:15:49.654Z,3.6
2022-09-21T08:17:47.976Z,2.7
2022-09-21T08:19:49.200Z,3.6
2022-09-21T08:22:52.690Z,3.3
2022-09-21T08:26:55.200Z,1.7
2022-09-21T08:39:05.160Z,2.5
2022-09-21T08:41:06.163Z,1.9
2022-09-21T08:47:12.622Z,1.7
2022-09-21T08:49:13.682Z,2.7
2022-09-21T08:51:14.766Z,1.7
2022-09-21T08:53:15.853Z,2
2022-09-21T08:55:17.741Z,2.4
2022-09-21T08:59:22.230Z,1.4
2022-09-21T09:03:24.340Z,1.2
2022-09-21T09:05:25.393Z,1
2022-09-21T09:11:31.738Z,1.6
2022-09-21T09:13:32.792Z,1.9
2022-09-21T09:15:33.825Z,1.8
2022-09-21T09:18:01.745Z,1.8
2022-09-21T09:20:02.863Z,1.4
2022-09-21T09:22:03.821Z,1.9
2022-09-21T09:24:08.080Z,1.1
2022-09-21T09:26:09.095Z,1.3
2022-09-21T09:28:10.120Z,1.6
2022-09-21T09:30:11.155Z,0.8
2022-09-21T09:32:12.218Z,1
2022-09-21T09:34:13.268Z,0.5
2022-09-21T09:36:14.320Z,1.1
2022-09-21T09:38:18.552Z,1
2022-09-21T09:42:20.650Z,0.7
2022-09-21T09:44:21.710Z,1.5
2022-09-21T09:46:22.803Z,1.5
2022-09-21T09:48:23.792Z,2.1
2022-09-21T09:50:24.860Z,0.8
2022-09-21T09:54:30.158Z,1
2022-09-21T09:58:32.276Z,1.3
2022-09-21T10:00:33.342Z,0.6
2022-09-21T10:02:34.404Z,0.9
2022-09-21T10:04:35.572Z,0.9
2022-09-21T10:06:45.109Z,0.9
2022-09-21T10:08:40.775Z,1.8
2022-09-21T10:10:41.859Z,0.9
2022-09-21T10:11:43.984Z,0.9
2022-09-21T10:13:45.031Z,1.5
2022-09-21T10:15:46.160Z,1.2
2022-09-21T10:17:47.150Z,0.6
2022-09-21T10:19:51.431Z,1.3
2022-09-21T10:21:52.488Z,1
2022-09-21T10:23:53.554Z,0.7
2022-09-21T10:25:54.699Z,2.1
2022-09-21T10:27:55.679Z,1.3
2022-09-21T10:29:56.746Z,1.5
2022-09-21T10:34:02.238Z,2.3
2022-09-21T10:36:03.243Z,0.9
2022-09-21T10:38:04.311Z,0.5
2022-09-21T10:40:05.462Z,0.9
2022-09-21T10:42:06.451Z,1.8
2022-09-21T10:44:07.523Z,1.1
2022-09-21T10:46:08.618Z,1.2
2022-09-21T10:48:12.821Z,0.5
2022-09-21T10:50:13.867Z,1
2022-09-21T10:52:14.912Z,1.1
2022-09-21T10:54:15.979Z,4.8
2022-09-21T10:56:17.927Z,0.8
2022-09-21T11:02:23.502Z,0.5
2022-09-21T11:04:24.458Z,1.3
2022-09-21T11:07:27.646Z,0.8
2022-09-21T11:09:28.711Z,0.7
2022-09-21T11:11:29.756Z,0.6
2022-09-21T11:13:30.810Z,0.4
2022-09-21T11:15:35.160Z,0.7
2022-09-21T11:17:36.137Z,0.9
2022-09-21T11:19:37.191Z,1.3
2022-09-21T11:21:38.257Z,0.4
2022-09-21T11:23:39.336Z,0.3
2022-09-21T11:25:40.488Z,1.3
2022-09-21T11:27:41.435Z,1.3
2022-09-21T11:29:45.710Z,0.9
2022-09-21T11:31:46.783Z,0.8
2022-09-21T11:33:47.848Z,0.6
2022-09-21T11:35:48.917Z,0.9
2022-09-21T11:37:49.988Z,0.4
2022-09-21T11:39:51.072Z,0.3
2022-09-21T11:41:52.164Z,0.5
2022-09-21T11:43:57.669Z,1.3
2022-09-21T11:45:59.111Z,1
2022-09-21T11:48:00.101Z,1
2022-09-21T11:50:19.547Z,0.5
2022-09-21T11:52:02.283Z,0.3
2022-09-21T11:54:03.354Z,1
2022-09-21T11:56:04.454Z,0.2
2022-09-21T11:58:08.737Z,0.7
2022-09-21T12:00:09.819Z,1.7
2022-09-21T12:03:13.026Z,0.1
2022-09-21T12:05:14.144Z,1.1
2022-09-21T12:07:15.226Z,0.9
2022-09-21T12:09:16.332Z,0.9
2022-09-21T12:11:20.622Z,0.5
2022-09-21T12:13:21.740Z,0.5
2022-09-21T12:15:22.916Z,0.7
2022-09-21T12:17:23.908Z,0.6
2022-09-21T12:19:25.019Z,1
2022-09-21T12:21:26.153Z,0.3
2022-09-21T12:23:27.252Z,0.4
2022-09-21T12:25:31.729Z,1.1
2022-09-21T12:27:32.618Z,1
2022-09-21T12:31:34.832Z,0.7
2022-09-21T12:33:35.923Z,0.7
2022-09-21T12:35:37.033Z,0.5
2022-09-21T12:37:38.131Z,0.4
2022-09-21T12:39:42.407Z,0.4
2022-09-21T12:41:43.519Z,2.5
2022-09-21T12:43:44.610Z,0.9
2022-09-21T12:45:45.731Z,0.5
2022-09-21T12:47:46.810Z,0.4
2022-09-21T12:49:47.944Z,0.4
2022-09-21T12:51:49.021Z,0.6
2022-09-21T12:53:53.305Z,0.7
2022-09-21T12:55:54.414Z,0.4
2022-09-21T12:58:14.051Z,0.2
2022-09-21T13:00:23.520Z,0.8
2022-09-21T13:02:24.776Z,0.8
2022-09-21T13:04:25.757Z,0.4
2022-09-21T13:06:30.018Z,0.4
2022-09-21T13:10:32.246Z,0.3
2022-09-21T13:12:33.356Z,0.3
2022-09-21T13:14:34.486Z,1
2022-09-21T13:22:42.154Z,0.4
2022-09-21T13:24:43.286Z,0.5
2022-09-21T13:26:44.406Z,0.5
2022-09-21T13:28:45.531Z,0.7
2022-09-21T13:30:46.654Z,1
2022-09-21T13:32:47.781Z,0.4
2022-09-21T13:34:52.101Z,0.4
2022-09-21T13:36:53.246Z,0.8
2022-09-21T13:38:54.390Z,1.2
2022-09-21T13:40:55.497Z,0.5
2022-09-21T13:42:56.633Z,1
2022-09-21T13:44:57.766Z,0.8
2022-09-21T13:46:58.964Z,0.4
2022-09-21T13:49:03.201Z,0.9
2022-09-21T13:51:04.329Z,1.2
2022-09-21T13:53:05.455Z,1.6
2022-09-21T13:54:07.623Z,1.3
2022-09-21T13:56:08.764Z,0.7
2022-09-21T13:58:09.891Z,0.2
2022-09-21T14:00:11.163Z,0.9
2022-09-21T14:02:15.427Z,0.3
2022-09-21T14:04:16.454Z,3.7
2022-09-21T14:06:17.612Z,3.1
2022-09-21T14:08:18.728Z,1.5
2022-09-21T14:10:19.852Z,0.9
2022-09-21T14:12:20.962Z,0.4
2022-09-21T14:14:22.103Z,0.9
2022-09-21T14:16:26.515Z,0.4
2022-09-21T14:18:27.513Z,1.9
2022-09-21T14:20:30.852Z,0.7
2022-09-21T14:22:29.763Z,0.4
2022-09-21T14:28:33.122Z,0.5
2022-09-21T14:30:37.417Z,1
2022-09-21T14:32:38.528Z,1
2022-09-21T14:34:39.635Z,1.3
2022-09-21T14:36:40.740Z,0.6
2022-09-21T14:38:41.859Z,0.5
2022-09-21T14:40:43.041Z,0.9
2022-09-21T14:42:44.085Z,1
2022-09-21T14:44:48.387Z,1.1
2022-09-21T14:46:49.571Z,1
2022-09-21T14:48:50.608Z,1.9
2022-09-21T14:49:52.751Z,0.7
2022-09-21T14:52:04.291Z,1.3
2022-09-21T14:53:55.062Z,1
2022-09-21T14:55:56.145Z,2.7
2022-09-21T15:02:02.682Z,2.7
2022-09-21T15:04:03.853Z,2
2022-09-21T15:06:04.892Z,1.1
2022-09-21T15:08:06.047Z,1.3
2022-09-21T15:10:07.127Z,1.7
2022-09-21T15:14:12.567Z,1.1
2022-09-21T15:16:13.799Z,0.6
2022-09-21T15:18:14.806Z,1
2022-09-21T15:20:15.919Z,0.4
2022-09-21T15:22:17.053Z,1.1
2022-09-21T15:24:18.180Z,1.9
2022-09-21T15:28:23.614Z,1.6
2022-09-21T15:30:24.735Z,0.6
2022-09-21T15:32:25.853Z,1.2
2022-09-21T15:34:26.973Z,1.9
2022-09-21T15:36:28.125Z,1.8
2022-09-21T15:38:29.234Z,0.7
2022-09-21T15:40:33.608Z,2.2
2022-09-21T15:42:34.644Z,1.5
2022-09-21T15:44:35.788Z,0.3
2022-09-21T15:45:37.957Z,0.8
2022-09-21T15:49:40.212Z,1.1
2022-09-21T15:51:41.346Z,1.2
2022-09-21T15:53:45.663Z,4.2
2022-09-21T15:55:46.796Z,1.7
2022-09-21T15:57:47.935Z,0.9
2022-09-21T16:03:56.481Z,1
2022-09-21T16:05:52.505Z,0.4
2022-09-21T16:07:56.802Z,0.6
2022-09-21T16:09:57.952Z,1.3
2022-09-21T16:11:59.102Z,2.2
2022-09-21T16:14:00.225Z,0.9
2022-09-21T16:16:01.423Z,1
2022-09-21T16:18:02.556Z,0.9
2022-09-21T16:20:03.662Z,2.3
2022-09-21T16:22:07.966Z,0.3
2022-09-21T16:24:09.100Z,1
2022-09-21T16:26:10.246Z,0.6
2022-09-21T16:28:11.371Z,0.4
2022-09-21T16:30:12.512Z,1
2022-09-21T16:32:13.646Z,1.3
2022-09-21T16:34:14.819Z,0.6
2022-09-21T16:36:19.131Z,0.3
2022-09-21T16:38:20.272Z,0.8
2022-09-21T16:42:49.444Z,1.7
2022-09-21T16:44:50.602Z,3.8
2022-09-21T16:46:51.829Z,1.6
2022-09-21T16:48:56.076Z,1
2022-09-21T16:50:57.411Z,1.3
2022-09-21T16:52:58.376Z,1.1
2022-09-21T16:54:59.523Z,1.5
2022-09-21T17:01:03.162Z,0.4
2022-09-21T17:03:07.399Z,0.6
2022-09-21T17:11:11.981Z,3.5
2022-09-21T17:13:13.131Z,4.1
2022-09-21T17:15:14.300Z,1.9
2022-09-21T17:17:18.747Z,3.9
2022-09-21T17:19:19.887Z,4.8
2022-09-21T17:21:21.027Z,4
2022-09-21T17:23:22.171Z,5.1
2022-09-21T17:25:23.342Z,11.6
2022-09-21T17:27:24.500Z,10.6
2022-09-21T17:29:25.629Z,10
2022-09-21T17:31:29.976Z,7.6
2022-09-21T17:33:31.102Z,8.1
2022-09-21T17:35:33.927Z,11.7
2022-09-21T17:36:36.139Z,9.1
2022-09-21T17:38:37.428Z,10.1
2022-09-21T17:40:38.765Z,8.7
2022-09-21T17:42:39.945Z,11.2
2022-09-21T17:44:44.492Z,9.2
2022-09-21T17:46:45.798Z,9.2
2022-09-21T17:48:47.038Z,10.7
2022-09-21T17:50:48.309Z,10.4
2022-09-21T17:58:56.616Z,11.3
2022-09-21T18:09:02.989Z,11.3
2022-09-21T18:19:12.565Z,12.5
2022-09-21T18:23:15.094Z,12.3
2022-09-21T18:25:16.354Z,11.9
2022-09-21T18:27:20.921Z,13.6
2022-09-21T18:29:38.304Z,10
2022-09-21T18:31:23.542Z,11.7
2022-09-21T18:32:25.708Z,13.2
2022-09-21T18:34:26.985Z,13.2
2022-09-21T18:36:28.276Z,10.9
2022-09-21T18:38:29.538Z,11.9
2022-09-21T18:40:34.224Z,9
2022-09-21T18:42:39.917Z,11.1
2022-09-21T18:54:46.186Z,16.5
2022-09-21T18:56:47.463Z,17.3
2022-09-21T19:04:52.509Z,17.1
2022-09-21T19:06:53.756Z,13.5
2022-09-21T19:08:58.349Z,16.1
2022-09-21T19:10:59.555Z,13.4
2022-09-21T19:13:00.815Z,20.3
2022-09-21T19:15:02.094Z,14.1
2022-09-21T19:17:03.330Z,13.4
2022-09-21T19:19:04.582Z,12.3
2022-09-21T19:21:05.995Z,10.3
2022-09-21T19:23:10.380Z,11.5
2022-09-21T19:25:11.635Z,10
2022-09-21T19:27:12.914Z,9.2
2022-09-21T19:28:15.158Z,10.4
2022-09-21T19:30:16.424Z,13.1
2022-09-21T19:32:17.672Z,13.8
2022-09-21T19:34:18.933Z,11.3
2022-09-21T19:36:23.449Z,12.5
2022-09-21T19:38:24.737Z,11.5
2022-09-21T19:40:26.023Z,10.2
2022-09-21T19:42:30.207Z,9.5
2022-09-21T19:44:28.477Z,11.2
2022-09-21T19:46:29.797Z,10.5
2022-09-21T19:48:31.029Z,8.5
2022-09-21T19:50:40.102Z,9.2
2022-09-21T19:52:36.800Z,10.4
2022-09-21T19:54:38.060Z,11
2022-09-21T19:56:39.320Z,9
2022-09-21T19:58:40.568Z,8
2022-09-21T20:00:41.845Z,7.6
2022-09-21T20:02:43.138Z,8.5
2022-09-21T20:04:47.644Z,8.9
2022-09-21T20:06:48.910Z,9.3
2022-09-21T20:08:50.186Z,9.8
2022-09-21T20:10:51.398Z,10.3
2022-09-21T20:12:52.700Z,7.9
2022-09-21T20:14:53.948Z,10.1
2022-09-21T20:16:55.269Z,9
2022-09-21T20:18:59.753Z,8.1
2022-09-21T20:21:01.085Z,7.6
2022-09-21T20:23:02.391Z,9.7
2022-09-21T20:25:24.865Z,10
2022-09-21T20:27:26.162Z,8.3
2022-09-21T20:29:27.390Z,6.5
2022-09-21T20:31:31.925Z,8.6
2022-09-21T20:33:33.173Z,7.6
2022-09-21T20:35:34.463Z,9.4
2022-09-21T20:37:35.695Z,9.3
2022-09-21T20:39:36.950Z,8.8
2022-09-21T20:41:38.243Z,9
2022-09-21T20:43:39.477Z,10
2022-09-21T20:45:44.086Z,9.7
2022-09-21T20:47:45.252Z,10.3
2022-09-21T20:49:46.508Z,9.9
2022-09-21T20:57:51.526Z,9.2
2022-09-21T21:01:57.275Z,8.9
2022-09-21T21:10:02.309Z,9.7
2022-09-21T21:12:03.549Z,8.8
2022-09-21T21:14:08.095Z,9.6
2022-09-21T21:16:12.066Z,9.1
2022-09-21T21:18:10.556Z,8.7
2022-09-21T21:19:12.809Z,10.2
2022-09-21T21:21:14.240Z,8.7
2022-09-21T21:23:15.316Z,10.1
2022-09-21T21:25:16.553Z,7.5
2022-09-21T21:29:22.322Z,7.4
2022-09-21T21:31:23.646Z,7.6
2022-09-21T21:33:24.809Z,7.9
2022-09-21T21:35:26.064Z,6.5
2022-09-21T21:39:28.572Z,5.3
2022-09-21T21:41:33.094Z,5.7
2022-09-21T21:43:34.331Z,6.7
2022-09-21T21:45:35.622Z,5.8
2022-09-21T21:47:40.511Z,5.9
2022-09-21T21:49:38.061Z,7.1
2022-09-21T21:51:39.300Z,6
2022-09-21T21:53:40.550Z,5.6
2022-09-21T21:55:45.075Z,8.6
2022-09-21T21:57:46.300Z,6.9
2022-09-21T21:59:47.566Z,8.1
2022-09-21T22:01:48.850Z,6.2
2022-09-21T22:03:50.103Z,7.3
2022-09-21T22:07:52.579Z,4.9
2022-09-21T22:09:57.067Z,4.7
2022-09-21T22:11:58.310Z,3.9
2022-09-21T22:13:59.573Z,5.4
2022-09-21T22:17:03.110Z,3.5
2022-09-21T22:19:04.337Z,4.2
2022-09-21T22:21:05.733Z,3.9
2022-09-21T22:23:10.145Z,5.3
2022-09-21T22:25:11.373Z,4.5
2022-09-21T22:27:12.636Z,4.1
2022-09-21T22:29:13.891Z,3.4
2022-09-21T22:31:15.155Z,4.1
2022-09-21T22:33:16.356Z,3.4
2022-09-21T22:37:22.107Z,4.7
2022-09-21T22:39:23.345Z,4.1
2022-09-21T22:41:24.607Z,3.8
2022-09-21T22:43:25.850Z,3.5
2022-09-21T22:45:27.164Z,3.5
2022-09-21T22:47:28.345Z,3.5
2022-09-21T22:49:29.616Z,3.8
2022-09-21T22:51:34.078Z,4.5
2022-09-21T22:53:35.319Z,4.1
2022-09-21T22:55:36.582Z,3.9
2022-09-21T22:57:37.818Z,3.7
2022-09-21T23:01:40.286Z,4.1
2022-09-21T23:03:41.608Z,4.6
2022-09-21T23:05:46.025Z,6.3
2022-09-21T23:07:47.320Z,5.3
2022-09-21T23:09:48.563Z,5.7
2022-09-21T23:10:50.793Z,6.5
2022-09-21T23:14:53.280Z,4.4
2022-09-21T23:16:54.541Z,3.6
2022-09-21T23:18:59.062Z,3.6
2022-09-21T23:21:00.282Z,3.7
2022-09-21T23:23:01.544Z,2.4
2022-09-21T23:25:04.320Z,4.1
2022-09-21T23:29:06.761Z,2.5
2022-09-21T23:33:12.509Z,2.4
2022-09-21T23:35:13.739Z,2.4
2022-09-21T23:37:14.982Z,2.2
2022-09-21T23:39:16.229Z,2.3
2022-09-21T23:41:17.475Z,2.4
2022-09-21T23:47:24.498Z,2.9
2022-09-21T23:49:25.703Z,2.5
2022-09-21T23:53:28.167Z,2.1
2022-09-21T23:59:31.931Z,2.3
